Time;durP1;ratioP1;P1;durP2;ratioP2;P2;SDS_P1;SDS_P2;PMS_P1;PMS_P2;Temp;Humidity;BMP_temperature;BMP_pressure;BME280_temperature;BME280_humidity;BME280_pressure;Samples;Min_cycle;Max_cycle;Signal;HPM_P1;HPM_P2
2022/10/19 00:01:08;;;;;;;;;;;12.00;99.90;;;;;;5081422;28;19920;-72
2022/10/19 00:03:35;;;;;;;;;;;12.00;99.90;;;;;;5071977;28;19920;-74
2022/10/19 00:06:10;;;;;;;;;;;11.90;99.90;;;;;;5082271;28;20226;-73
2022/10/19 00:08:36;;;;;;;;;;;11.80;99.90;;;;;;5094930;28;19991;-73
2022/10/19 00:11:03;;;;;;;;;;;11.80;99.90;;;;;;5088229;28;19988;-73
2022/10/19 00:13:29;;;;;;;;;;;11.80;99.90;;;;;;5082729;28;19927;-73
2022/10/19 00:15:57;;;;;;;;;;;11.80;99.90;;;;;;5082035;28;20156;-73
2022/10/19 00:18:24;;;;;;;;;;;11.80;99.90;;;;;;5091896;28;19920;-73
2022/10/19 00:20:51;;;;;;;;;;;11.80;99.90;;;;;;5102343;28;19920;-73
2022/10/19 00:23:17;;;;;;;;;;;11.80;99.90;;;;;;5072906;28;20280;-73
2022/10/19 00:25:54;;;;;;;;;;;11.80;99.90;;;;;;5065934;28;20000;-73
2022/10/19 00:28:20;;;;;;;;;;;11.80;99.90;;;;;;5077106;28;20204;-73
2022/10/19 00:30:47;;;;;;;;;;;11.90;99.90;;;;;;5086457;28;19992;-73
2022/10/19 00:33:19;;;;;;;;;;;11.90;99.90;;;;;;5091198;28;20210;-73
2022/10/19 00:35:47;;;;;;;;;;;11.90;99.90;;;;;;5085656;28;19920;-73
2022/10/19 00:38:13;;;;;;;;;;;11.90;99.90;;;;;;5086238;28;20023;-74
2022/10/19 00:40:40;;;;;;;;;;;11.90;99.90;;;;;;5085845;28;19927;-74
2022/10/19 00:43:09;;;;;;;;;;;12.00;99.90;;;;;;5085450;28;20144;-73
2022/10/19 00:45:36;;;;;;;;;;;11.90;99.90;;;;;;5085682;28;20124;-73
2022/10/19 00:48:02;;;;;;;;;;;11.90;99.90;;;;;;5092842;28;19926;-73
2022/10/19 00:50:30;;;;;;;;;;;11.90;99.90;;;;;;5105860;28;20144;-73
2022/10/19 00:52:57;;;;;;;;;;;12.00;99.90;;;;;;5090423;28;19920;-73
2022/10/19 00:55:24;;;;;;;;;;;12.00;99.90;;;;;;5085200;28;19921;-72
2022/10/19 00:57:50;;;;;;;;;;;12.00;99.90;;;;;;5083701;28;19927;-73
2022/10/19 01:00:17;;;;;;;;;;;12.00;99.90;;;;;;5065743;28;19927;-73
2022/10/19 01:02:44;;;;;;;;;;;12.10;99.90;;;;;;5078229;28;20160;-73
2022/10/19 01:05:11;;;;;;;;;;;12.10;99.90;;;;;;5084842;28;19920;-72
2022/10/19 01:07:39;;;;;;;;;;;12.10;99.90;;;;;;5085707;28;19928;-73
2022/10/19 01:10:06;;;;;;;;;;;12.10;99.90;;;;;;5091304;28;19926;-72
2022/10/19 01:13:00;;;;;;;;;;;12.10;99.90;;;;;;5105313;28;19927;-72
2022/10/19 01:15:31;;;;;;;;;;;12.00;99.90;;;;;;5051709;28;19920;-73
2022/10/19 01:18:02;;;;;;;;;;;12.10;99.90;;;;;;5085100;28;20198;-73
2022/10/19 01:20:40;;;;;;;;;;;12.10;99.90;;;;;;5085662;28;19990;-73
2022/10/19 01:23:16;;;;;;;;;;;12.10;99.90;;;;;;5079888;28;19973;-72
2022/10/19 01:25:47;;;;;;;;;;;12.10;99.90;;;;;;5101762;28;20226;-72
2022/10/19 01:28:30;;;;;;;;;;;12.10;99.90;;;;;;5095048;28;20219;-72
2022/10/19 01:31:00;;;;;;;;;;;12.10;99.90;;;;;;5104140;28;19934;-73
2022/10/19 01:33:32;;;;;;;;;;;12.10;99.90;;;;;;5095955;28;20201;-73
2022/10/19 01:36:04;;;;;;;;;;;12.00;99.90;;;;;;5084681;28;19920;-72
2022/10/19 01:38:34;;;;;;;;;;;12.00;99.90;;;;;;5092391;28;19920;-72
2022/10/19 01:41:05;;;;;;;;;;;12.00;99.90;;;;;;5085187;28;19934;-73
2022/10/19 01:43:37;;;;;;;;;;;12.00;99.90;;;;;;5085346;28;19987;-73
2022/10/19 01:46:07;;;;;;;;;;;12.00;99.90;;;;;;5084371;28;19924;-73
2022/10/19 01:48:35;;;;;;;;;;;12.00;99.90;;;;;;5094983;28;19920;-72
2022/10/19 01:51:03;;;;;;;;;;;12.00;99.90;;;;;;5096837;28;20127;-72
2022/10/19 01:53:32;;;;;;;;;;;12.10;99.90;;;;;;5085098;28;20192;-73
2022/10/19 01:56:01;;;;;;;;;;;12.10;99.90;;;;;;5086398;28;19927;-72
2022/10/19 01:58:30;;;;;;;;;;;12.10;99.90;;;;;;5077997;28;19980;-72
2022/10/19 02:00:58;;;;;;;;;;;12.00;99.90;;;;;;5076318;28;19927;-72
2022/10/19 02:03:27;;;;;;;;;;;12.10;99.90;;;;;;5081512;28;19926;-72
2022/10/19 02:05:54;;;;;;;;;;;12.10;99.90;;;;;;5084028;28;19926;-72
2022/10/19 02:08:24;;;;;;;;;;;12.10;99.90;;;;;;5085007;28;19927;-72
2022/10/19 02:10:51;;;;;;;;;;;12.10;99.90;;;;;;5078146;28;20214;-72
2022/10/19 02:13:19;;;;;;;;;;;12.10;99.90;;;;;;5082697;28;20295;-72
2022/10/19 02:15:47;;;;;;;;;;;12.10;99.90;;;;;;5076382;28;19921;-74
2022/10/19 02:18:15;;;;;;;;;;;12.10;99.90;;;;;;5084339;28;20226;-74
2022/10/19 02:20:43;;;;;;;;;;;12.10;99.90;;;;;;5084474;28;19921;-74
2022/10/19 02:23:10;;;;;;;;;;;12.10;99.90;;;;;;5084144;28;19950;-74
2022/10/19 02:25:36;;;;;;;;;;;12.20;99.90;;;;;;5083671;28;20060;-72
2022/10/19 02:28:04;;;;;;;;;;;12.10;99.90;;;;;;5084391;28;19920;-75
2022/10/19 02:30:31;;;;;;;;;;;12.20;99.90;;;;;;5083828;28;19926;-75
2022/10/19 02:32:57;;;;;;;;;;;12.20;99.90;;;;;;5084104;28;19927;-75
2022/10/19 02:35:24;;;;;;;;;;;12.20;99.90;;;;;;5083956;28;20226;-74
2022/10/19 02:37:52;;;;;;;;;;;12.20;99.90;;;;;;5086291;28;19935;-73
2022/10/19 02:40:19;;;;;;;;;;;12.20;99.90;;;;;;5103818;28;19924;-72
2022/10/19 02:42:48;;;;;;;;;;;12.20;99.90;;;;;;5103788;28;20107;-73
2022/10/19 02:45:19;;;;;;;;;;;12.20;99.90;;;;;;5082244;28;19946;-73
2022/10/19 02:47:48;;;;;;;;;;;12.20;99.90;;;;;;5083883;28;19920;-73
2022/10/19 02:50:15;;;;;;;;;;;12.20;99.90;;;;;;5097398;28;19920;-71
2022/10/19 02:52:41;;;;;;;;;;;12.20;99.90;;;;;;5104427;28;19943;-72
2022/10/19 02:55:09;;;;;;;;;;;12.20;99.90;;;;;;5097664;28;20127;-72
2022/10/19 02:57:36;;;;;;;;;;;12.30;99.90;;;;;;5083331;28;19926;-72
2022/10/19 03:00:04;;;;;;;;;;;12.30;99.90;;;;;;5103827;28;19920;-71
2022/10/19 03:02:31;;;;;;;;;;;12.30;99.90;;;;;;5084145;28;20222;-72
2022/10/19 03:04:57;;;;;;;;;;;12.30;99.90;;;;;;5076679;28;19927;-72
2022/10/19 03:07:24;;;;;;;;;;;12.30;99.90;;;;;;5083362;28;19959;-71
2022/10/19 03:09:50;;;;;;;;;;;12.30;99.90;;;;;;5083692;28;19984;-71
2022/10/19 03:12:18;;;;;;;;;;;12.30;99.90;;;;;;5083263;28;19988;-71
2022/10/19 03:14:45;;;;;;;;;;;12.30;99.90;;;;;;5082955;28;19928;-72
2022/10/19 03:17:12;;;;;;;;;;;12.30;99.90;;;;;;5083379;28;19920;-71
2022/10/19 03:19:38;;;;;;;;;;;12.30;99.90;;;;;;5088866;28;20259;-71
2022/10/19 03:22:05;;;;;;;;;;;12.30;99.90;;;;;;5083439;28;19927;-71
2022/10/19 03:24:32;;;;;;;;;;;12.40;99.90;;;;;;5099297;28;19920;-72
2022/10/19 03:26:59;;;;;;;;;;;12.40;99.90;;;;;;5083186;28;19987;-71
2022/10/19 03:29:27;;;;;;;;;;;12.40;99.90;;;;;;5089382;28;20011;-72
2022/10/19 03:31:53;;;;;;;;;;;12.40;99.90;;;;;;5090405;28;20226;-71
2022/10/19 03:34:20;;;;;;;;;;;12.40;99.90;;;;;;5088284;28;19983;-73
2022/10/19 03:36:46;;;;;;;;;;;12.40;99.90;;;;;;5098542;28;19978;-72
2022/10/19 03:39:14;;;;;;;;;;;12.40;99.90;;;;;;5096105;28;19934;-72
2022/10/19 03:41:41;;;;;;;;;;;12.40;99.90;;;;;;5103231;28;20306;-72
2022/10/19 03:44:08;;;;;;;;;;;12.40;99.90;;;;;;5085977;28;19921;-72
2022/10/19 03:46:37;;;;;;;;;;;12.40;99.90;;;;;;5082740;28;20287;-73
2022/10/19 03:49:04;;;;;;;;;;;12.40;99.90;;;;;;5084718;28;20101;-73
2022/10/19 03:51:31;;;;;;;;;;;12.40;99.90;;;;;;5087630;28;19930;-73
2022/10/19 03:53:59;;;;;;;;;;;12.50;99.90;;;;;;5102567;28;19920;-74
2022/10/19 03:56:26;;;;;;;;;;;12.50;99.90;;;;;;5083864;28;20200;-73
2022/10/19 03:58:53;;;;;;;;;;;12.50;99.90;;;;;;5095876;28;19920;-74
2022/10/19 04:01:21;;;;;;;;;;;12.50;99.90;;;;;;5091128;28;19927;-73
2022/10/19 04:03:52;;;;;;;;;;;12.50;99.90;;;;;;5085133;28;19988;-73
2022/10/19 04:06:19;;;;;;;;;;;12.50;99.90;;;;;;5086598;28;19952;-73
2022/10/19 04:08:48;;;;;;;;;;;12.50;99.90;;;;;;5094473;28;20259;-73
2022/10/19 04:11:15;;;;;;;;;;;12.50;99.90;;;;;;5106228;28;20199;-74
2022/10/19 04:13:41;;;;;;;;;;;12.50;99.90;;;;;;5086745;28;19939;-73
2022/10/19 04:16:09;;;;;;;;;;;12.50;99.90;;;;;;5086564;28;19920;-74
2022/10/19 04:18:36;;;;;;;;;;;12.50;99.90;;;;;;5086582;28;19920;-73
2022/10/19 04:21:04;;;;;;;;;;;12.50;99.90;;;;;;5095534;28;20018;-74
2022/10/19 04:23:33;;;;;;;;;;;12.50;99.90;;;;;;5100494;28;19989;-74
2022/10/19 04:25:59;;;;;;;;;;;12.50;99.90;;;;;;5086064;28;19924;-74
2022/10/19 04:28:26;;;;;;;;;;;12.50;99.90;;;;;;5091097;28;20089;-74
2022/10/19 04:30:53;;;;;;;;;;;12.50;99.90;;;;;;5088999;28;19920;-73
2022/10/19 04:33:19;;;;;;;;;;;12.50;99.90;;;;;;5086467;28;20272;-74
2022/10/19 04:35:46;;;;;;;;;;;12.50;99.90;;;;;;5086338;28;19979;-73
2022/10/19 04:38:14;;;;;;;;;;;12.60;99.90;;;;;;5087197;28;20115;-74
2022/10/19 04:40:40;;;;;;;;;;;12.60;99.90;;;;;;5086681;28;19920;-74
2022/10/19 04:43:07;;;;;;;;;;;12.60;99.90;;;;;;5086539;28;20204;-74
2022/10/19 04:45:35;;;;;;;;;;;12.50;99.90;;;;;;5086497;28;19952;-74
2022/10/19 04:48:01;;;;;;;;;;;12.60;99.90;;;;;;5086502;28;20111;-74
2022/10/19 04:50:28;;;;;;;;;;;12.60;99.90;;;;;;5086501;28;19983;-74
2022/10/19 04:52:55;;;;;;;;;;;12.60;99.90;;;;;;5086335;28;19963;-74
2022/10/19 04:55:22;;;;;;;;;;;12.60;99.90;;;;;;5085910;28;19984;-73
2022/10/19 04:57:49;;;;;;;;;;;12.60;99.90;;;;;;5086521;28;19979;-73
2022/10/19 05:00:16;;;;;;;;;;;12.60;99.90;;;;;;5086412;28;20254;-73
2022/10/19 05:02:43;;;;;;;;;;;12.60;99.90;;;;;;5086913;28;19921;-73
2022/10/19 05:05:09;;;;;;;;;;;12.70;99.90;;;;;;5086395;28;19985;-73
2022/10/19 05:07:36;;;;;;;;;;;12.70;99.90;;;;;;5085792;28;21726;-72
2022/10/19 05:10:03;;;;;;;;;;;12.70;99.90;;;;;;5086323;28;19927;-73
2022/10/19 05:12:31;;;;;;;;;;;12.70;99.90;;;;;;5086567;28;20225;-73
2022/10/19 05:14:57;;;;;;;;;;;12.70;99.90;;;;;;5086225;28;19999;-73
2022/10/19 05:17:24;;;;;;;;;;;12.70;99.90;;;;;;5086122;28;19920;-74
2022/10/19 05:19:50;;;;;;;;;;;12.70;99.90;;;;;;5085793;28;19921;-74
2022/10/19 05:22:17;;;;;;;;;;;12.70;99.90;;;;;;5085215;28;19927;-70
2022/10/19 05:24:44;;;;;;;;;;;12.70;99.90;;;;;;5085483;28;19927;-70
2022/10/19 05:27:10;;;;;;;;;;;12.70;99.90;;;;;;5085398;28;20212;-73
2022/10/19 05:29:38;;;;;;;;;;;12.70;99.90;;;;;;5102760;28;20089;-71
2022/10/19 05:32:05;;;;;;;;;;;12.80;99.90;;;;;;5096275;28;19984;-74
2022/10/19 05:34:32;;;;;;;;;;;12.80;99.90;;;;;;5085115;28;19987;-73
2022/10/19 05:36:58;;;;;;;;;;;12.80;99.90;;;;;;5085612;28;19920;-74
2022/10/19 05:39:26;;;;;;;;;;;12.80;99.90;;;;;;5101642;28;19928;-74
2022/10/19 05:41:52;;;;;;;;;;;12.80;99.90;;;;;;5105337;28;19927;-74
2022/10/19 05:44:20;;;;;;;;;;;12.80;99.90;;;;;;5105151;28;20097;-74
2022/10/19 05:46:48;;;;;;;;;;;12.80;99.90;;;;;;5098163;28;19920;-73
2022/10/19 05:49:15;;;;;;;;;;;12.80;99.90;;;;;;5087952;28;19952;-74
2022/10/19 05:51:42;;;;;;;;;;;12.80;99.90;;;;;;5085277;28;19920;-74
2022/10/19 05:54:09;;;;;;;;;;;12.70;99.90;;;;;;5085135;28;19926;-74
2022/10/19 05:56:36;;;;;;;;;;;12.70;99.90;;;;;;5085039;28;20089;-72
2022/10/19 05:59:04;;;;;;;;;;;12.70;99.90;;;;;;5084902;28;19983;-74
2022/10/19 06:01:31;;;;;;;;;;;12.70;99.90;;;;;;5089320;28;19944;-73
2022/10/19 06:04:00;;;;;;;;;;;12.80;99.90;;;;;;5069045;28;20231;-73
2022/10/19 06:06:27;;;;;;;;;;;12.80;99.90;;;;;;5064864;28;19969;-74
2022/10/19 06:08:54;;;;;;;;;;;12.80;99.90;;;;;;5065025;28;20116;-74
2022/10/19 06:11:21;;;;;;;;;;;12.80;99.90;;;;;;5064828;28;19927;-74
2022/10/19 06:13:49;;;;;;;;;;;12.80;99.90;;;;;;5068822;28;19984;-74
2022/10/19 06:16:16;;;;;;;;;;;12.90;99.90;;;;;;5084687;28;19983;-74
2022/10/19 06:18:43;;;;;;;;;;;12.80;99.90;;;;;;5084680;28;19920;-72
2022/10/19 06:21:12;;;;;;;;;;;12.80;99.90;;;;;;5084537;28;19920;-74
2022/10/19 06:23:39;;;;;;;;;;;12.80;99.90;;;;;;5084691;28;19952;-73
2022/10/19 06:26:07;;;;;;;;;;;12.90;99.90;;;;;;5084622;28;19920;-74
2022/10/19 06:28:34;;;;;;;;;;;12.90;99.90;;;;;;5084790;28;19983;-74
2022/10/19 06:31:01;;;;;;;;;;;12.90;99.90;;;;;;5084731;28;19987;-74
2022/10/19 06:33:28;;;;;;;;;;;13.00;99.90;;;;;;5084790;28;19927;-74
2022/10/19 06:35:55;;;;;;;;;;;13.00;99.90;;;;;;5084156;28;19921;-74
2022/10/19 06:38:23;;;;;;;;;;;12.90;99.90;;;;;;5093270;28;19979;-74
2022/10/19 06:40:49;;;;;;;;;;;12.90;99.90;;;;;;5089595;28;19921;-73
2022/10/19 06:43:16;;;;;;;;;;;13.00;99.90;;;;;;5084546;28;19987;-74
2022/10/19 06:45:43;;;;;;;;;;;13.00;99.90;;;;;;5083982;28;19979;-74
2022/10/19 06:48:09;;;;;;;;;;;13.00;99.90;;;;;;5090276;28;19984;-74
2022/10/19 06:50:36;;;;;;;;;;;13.00;99.90;;;;;;5104128;28;19920;-74
2022/10/19 06:53:02;;;;;;;;;;;13.00;99.90;;;;;;5104163;28;20186;-74
2022/10/19 06:55:30;;;;;;;;;;;13.00;99.90;;;;;;5103883;28;19975;-74
2022/10/19 06:57:58;;;;;;;;;;;13.00;99.90;;;;;;5099736;28;19921;-74
2022/10/19 07:00:24;;;;;;;;;;;13.00;99.90;;;;;;5095549;28;19920;-74
2022/10/19 07:02:51;;;;;;;;;;;13.00;99.90;;;;;;5083016;28;19999;-74
2022/10/19 07:05:17;;;;;;;;;;;13.00;99.90;;;;;;5090818;28;19991;-74
2022/10/19 07:07:44;;;;;;;;;;;13.00;99.90;;;;;;5086480;28;19984;-73
2022/10/19 07:10:11;;;;;;;;;;;13.10;99.90;;;;;;5083504;28;19927;-74
2022/10/19 07:12:39;;;;;;;;;;;13.10;99.90;;;;;;5083279;28;19983;-74
2022/10/19 07:15:06;;;;;;;;;;;13.10;99.90;;;;;;5075641;28;19935;-74
2022/10/19 07:17:33;;;;;;;;;;;13.10;99.90;;;;;;5084093;28;19927;-73
2022/10/19 07:20:00;;;;;;;;;;;13.10;99.90;;;;;;5083163;28;19928;-74
2022/10/19 07:22:26;;;;;;;;;;;13.10;99.90;;;;;;5082970;28;19983;-73
2022/10/19 07:24:53;;;;;;;;;;;13.10;99.90;;;;;;5082371;28;20228;-74
2022/10/19 07:27:20;;;;;;;;;;;13.00;99.90;;;;;;5083780;28;19958;-74
2022/10/19 07:29:48;;;;;;;;;;;13.00;99.90;;;;;;5083539;28;20266;-74
2022/10/19 07:32:14;;;;;;;;;;;13.00;99.90;;;;;;5083086;28;19929;-74
2022/10/19 07:34:41;;;;;;;;;;;13.10;99.90;;;;;;5082727;28;20204;-73
2022/10/19 07:37:07;;;;;;;;;;;13.10;99.90;;;;;;5083314;28;19921;-74
2022/10/19 07:39:34;;;;;;;;;;;13.10;99.90;;;;;;5083484;28;19980;-74
2022/10/19 07:42:01;;;;;;;;;;;13.10;99.90;;;;;;5080168;28;20160;-71
2022/10/19 07:44:27;;;;;;;;;;;13.10;99.90;;;;;;5081291;28;19987;-75
2022/10/19 07:46:56;;;;;;;;;;;13.10;99.90;;;;;;5071225;28;19924;-74
2022/10/19 07:49:23;;;;;;;;;;;13.20;99.90;;;;;;5063486;28;19921;-74
2022/10/19 07:51:52;;;;;;;;;;;13.20;99.90;;;;;;5073178;28;19927;-73
2022/10/19 07:54:19;;;;;;;;;;;13.20;99.90;;;;;;5082916;28;19959;-74
2022/10/19 07:56:45;;;;;;;;;;;13.20;99.90;;;;;;5083422;28;19998;-72
2022/10/19 07:59:15;;;;;;;;;;;13.30;99.90;;;;;;5082768;28;19984;-74
2022/10/19 08:01:42;;;;;;;;;;;13.30;99.90;;;;;;5081169;28;20188;-74
2022/10/19 08:04:10;;;;;;;;;;;13.30;99.90;;;;;;5082801;28;20220;-72
2022/10/19 08:06:37;;;;;;;;;;;13.30;99.90;;;;;;5078462;28;19921;-74
2022/10/19 08:09:04;;;;;;;;;;;13.30;99.90;;;;;;5082864;28;19983;-74
2022/10/19 08:11:31;;;;;;;;;;;13.30;99.90;;;;;;5088803;28;20163;-74
2022/10/19 08:13:58;;;;;;;;;;;13.30;99.90;;;;;;5082411;28;19924;-73
2022/10/19 08:16:26;;;;;;;;;;;13.30;99.90;;;;;;5082178;28;19980;-75
2022/10/19 08:18:53;;;;;;;;;;;13.30;99.90;;;;;;5082727;28;20209;-74
2022/10/19 08:21:21;;;;;;;;;;;13.40;99.90;;;;;;5093316;28;19920;-74
2022/10/19 08:23:47;;;;;;;;;;;13.40;99.90;;;;;;5082707;28;20119;-74
2022/10/19 08:26:14;;;;;;;;;;;13.40;99.90;;;;;;5082229;28;19920;-74
2022/10/19 08:28:40;;;;;;;;;;;13.50;99.90;;;;;;5082410;28;20139;-74
2022/10/19 08:31:11;;;;;;;;;;;13.50;99.90;;;;;;5082740;28;19960;-73
2022/10/19 08:33:38;;;;;;;;;;;13.50;99.90;;;;;;5080909;28;19921;-73
2022/10/19 08:36:05;;;;;;;;;;;13.50;99.90;;;;;;5085267;28;19920;-73
2022/10/19 08:38:34;;;;;;;;;;;13.50;99.90;;;;;;5073093;28;20208;-74
2022/10/19 08:41:04;;;;;;;;;;;13.50;99.90;;;;;;5082198;28;20200;-73
2022/10/19 08:43:34;;;;;;;;;;;13.50;99.90;;;;;;5091457;28;19920;-72
2022/10/19 08:46:02;;;;;;;;;;;13.50;99.90;;;;;;5081263;28;19983;-73
2022/10/19 08:48:31;;;;;;;;;;;13.50;99.90;;;;;;5086399;28;20116;-72
2022/10/19 08:50:59;;;;;;;;;;;13.50;99.90;;;;;;5089810;28;20216;-73
2022/10/19 08:53:31;;;;;;;;;;;13.50;99.90;;;;;;5085974;28;19992;-73
2022/10/19 08:56:04;;;;;;;;;;;13.50;99.90;;;;;;5074425;28;19921;-73
2022/10/19 08:58:47;;;;;;;;;;;13.50;99.90;;;;;;5085250;28;19920;-73
2022/10/19 09:01:16;;;;;;;;;;;13.50;99.90;;;;;;5070953;28;20182;-73
2022/10/19 09:03:45;;;;;;;;;;;13.50;99.90;;;;;;5084980;28;20219;-74
2022/10/19 09:06:20;;;;;;;;;;;13.50;99.90;;;;;;5093437;28;19920;-73
2022/10/19 09:08:47;;;;;;;;;;;13.50;99.90;;;;;;5087819;28;20204;-74
2022/10/19 09:11:17;;;;;;;;;;;13.50;99.90;;;;;;5085930;28;20288;-72
2022/10/19 09:13:45;;;;;;;;;;;13.50;99.90;;;;;;5083088;28;19931;-73
2022/10/19 09:16:13;;;;;;;;;;;13.50;99.90;;;;;;5097817;28;19927;-74
2022/10/19 09:18:40;;;;;;;;;;;13.50;99.90;;;;;;5085559;28;20016;-74
2022/10/19 09:21:12;;;;;;;;;;;13.50;99.90;;;;;;5085154;28;19928;-74
2022/10/19 09:23:39;;;;;;;;;;;13.50;99.90;;;;;;5085574;28;19920;-73
2022/10/19 09:26:10;;;;;;;;;;;13.50;99.90;;;;;;5089762;28;19984;-74
2022/10/19 09:28:45;;;;;;;;;;;13.60;99.90;;;;;;5085452;28;19921;-74
2022/10/19 09:31:14;;;;;;;;;;;13.70;99.90;;;;;;5081024;28;20186;-74
2022/10/19 09:33:41;;;;;;;;;;;13.70;99.90;;;;;;5085219;28;20115;-73
2022/10/19 09:36:09;;;;;;;;;;;13.80;99.90;;;;;;5072128;28;19984;-73
2022/10/19 09:38:36;;;;;;;;;;;13.80;99.90;;;;;;5080928;28;19927;-72
2022/10/19 09:41:11;;;;;;;;;;;13.90;99.90;;;;;;5075249;28;20008;-70
2022/10/19 09:43:52;;;;;;;;;;;13.90;99.90;;;;;;5083792;28;19995;-72
2022/10/19 09:46:26;;;;;;;;;;;13.90;99.90;;;;;;5083792;28;19921;-72
2022/10/19 09:48:53;;;;;;;;;;;13.90;99.90;;;;;;5084606;28;20204;-72
2022/10/19 09:51:20;;;;;;;;;;;13.90;99.90;;;;;;5086874;28;19921;-72
2022/10/19 09:53:49;;;;;;;;;;;14.00;99.90;;;;;;5083531;28;19926;-72
2022/10/19 09:56:18;;;;;;;;;;;14.00;99.90;;;;;;5095881;28;19920;-72
2022/10/19 09:58:47;;;;;;;;;;;14.00;99.90;;;;;;5073983;28;20123;-72
2022/10/19 10:01:29;;;;;;;;;;;13.90;99.90;;;;;;5070952;28;19921;-72
2022/10/19 10:04:04;;;;;;;;;;;13.90;99.90;;;;;;5084592;28;19932;-72
2022/10/19 10:06:31;;;;;;;;;;;13.90;99.90;;;;;;5086259;28;20212;-73
2022/10/19 10:08:58;;;;;;;;;;;13.80;99.90;;;;;;5081954;28;19927;-72
2022/10/19 10:11:26;;;;;;;;;;;13.80;99.90;;;;;;5070835;28;19926;-73
2022/10/19 10:13:54;;;;;;;;;;;13.80;99.90;;;;;;5083631;28;20179;-72
2022/10/19 10:16:23;;;;;;;;;;;13.70;99.90;;;;;;5083791;28;19920;-73
2022/10/19 10:18:51;;;;;;;;;;;13.70;99.90;;;;;;5085102;28;20119;-73
2022/10/19 10:21:21;;;;;;;;;;;13.70;99.90;;;;;;5082342;28;19988;-73
2022/10/19 10:23:58;;;;;;;;;;;13.60;99.90;;;;;;5078767;28;20012;-72
2022/10/19 10:26:25;;;;;;;;;;;13.60;99.90;;;;;;5077529;28;19924;-71
2022/10/19 10:28:52;;;;;;;;;;;13.60;99.90;;;;;;5077801;28;19920;-74
2022/10/19 10:31:24;;;;;;;;;;;13.70;99.90;;;;;;5081957;28;19985;-71
2022/10/19 10:33:55;;;;;;;;;;;13.70;99.90;;;;;;5074469;28;19920;-72
2022/10/19 10:36:23;;;;;;;;;;;13.70;99.90;;;;;;5096279;28;19920;-71
2022/10/19 10:38:51;;;;;;;;;;;13.80;99.90;;;;;;5084603;28;19926;-72
2022/10/19 10:41:21;;;;;;;;;;;13.80;99.90;;;;;;5081833;28;19987;-73
2022/10/19 10:43:51;;;;;;;;;;;13.90;99.90;;;;;;5083504;28;19950;-71
2022/10/19 10:46:20;;;;;;;;;;;13.90;99.90;;;;;;5080541;28;19920;-72
2022/10/19 10:48:53;;;;;;;;;;;13.90;99.90;;;;;;5079922;28;19987;-73
2022/10/19 10:51:20;;;;;;;;;;;14.00;99.90;;;;;;5077003;28;19920;-72
2022/10/19 10:53:47;;;;;;;;;;;14.10;99.90;;;;;;5081616;28;19921;-73
2022/10/19 10:56:20;;;;;;;;;;;14.10;99.90;;;;;;5083645;28;19928;-72
2022/10/19 10:58:50;;;;;;;;;;;14.10;99.90;;;;;;5084219;28;19926;-72
2022/10/19 11:01:19;;;;;;;;;;;14.20;99.90;;;;;;5083964;28;19931;-73
2022/10/19 11:03:48;;;;;;;;;;;14.30;99.90;;;;;;5083902;28;20222;-72
2022/10/19 11:06:17;;;;;;;;;;;14.40;99.90;;;;;;5082759;28;19920;-72
2022/10/19 11:08:46;;;;;;;;;;;14.50;99.90;;;;;;5083390;28;20257;-72
2022/10/19 11:11:14;;;;;;;;;;;14.50;99.90;;;;;;5099400;28;19919;-75
2022/10/19 11:13:45;;;;;;;;;;;14.50;99.90;;;;;;5101727;28;19920;-72
2022/10/19 11:16:13;;;;;;;;;;;14.70;99.90;;;;;;5083760;28;19994;-72
2022/10/19 11:18:41;;;;;;;;;;;14.80;99.90;;;;;;5086511;28;19920;-72
2022/10/19 11:21:10;;;;;;;;;;;14.90;99.90;;;;;;5104285;28;20204;-72
2022/10/19 11:23:47;;;;;;;;;;;15.00;99.90;;;;;;5093678;28;19927;-73
2022/10/19 11:26:19;;;;;;;;;;;15.10;99.90;;;;;;5083649;28;19921;-73
2022/10/19 11:28:55;;;;;;;;;;;15.20;99.90;;;;;;5083846;28;19927;-73
2022/10/19 11:31:22;;;;;;;;;;;15.10;99.90;;;;;;5080483;28;19920;-73
2022/10/19 11:33:53;;;;;;;;;;;15.00;99.90;;;;;;5083063;28;19927;-72
2022/10/19 11:36:37;;;;;;;;;;;15.00;99.90;;;;;;5079879;28;19952;-73
2022/10/19 11:39:13;;;;;;;;;;;14.90;99.90;;;;;;5081522;28;20232;-73
2022/10/19 11:41:46;;;;;;;;;;;14.90;99.90;;;;;;5083371;28;19952;-72
2022/10/19 11:44:19;;;;;;;;;;;14.90;99.90;;;;;;5083005;28;19935;-73
2022/10/19 11:46:51;;;;;;;;;;;14.90;99.90;;;;;;5083038;28;19950;-73
2022/10/19 11:49:25;;;;;;;;;;;14.80;99.90;;;;;;5081446;28;20116;-74
2022/10/19 11:51:56;;;;;;;;;;;14.80;99.90;;;;;;5080594;28;19979;-72
2022/10/19 11:54:29;;;;;;;;;;;14.70;99.90;;;;;;5080968;28;21236;-72
2022/10/19 11:56:58;;;;;;;;;;;14.70;99.90;;;;;;5083277;28;19920;-72
2022/10/19 11:59:30;;;;;;;;;;;14.60;99.90;;;;;;5083627;28;19983;-71
2022/10/19 12:02:00;;;;;;;;;;;14.70;99.90;;;;;;5087794;28;20244;-72
2022/10/19 12:04:36;;;;;;;;;;;14.70;99.90;;;;;;5083233;28;19920;-73
2022/10/19 12:07:12;;;;;;;;;;;14.70;99.90;;;;;;5081435;28;19920;-71
2022/10/19 12:09:46;;;;;;;;;;;14.60;99.90;;;;;;5081193;28;19927;-72
2022/10/19 12:12:21;;;;;;;;;;;14.60;99.90;;;;;;5084008;28;19927;-72
2022/10/19 12:14:49;;;;;;;;;;;14.60;99.90;;;;;;5079447;28;19944;-72
2022/10/19 12:17:20;;;;;;;;;;;14.60;99.90;;;;;;5078750;28;19952;-72
2022/10/19 12:19:48;;;;;;;;;;;14.60;99.90;;;;;;5087063;28;20267;-72
2022/10/19 12:22:16;;;;;;;;;;;14.60;99.90;;;;;;5086923;28;19944;-71
2022/10/19 12:24:45;;;;;;;;;;;14.50;99.90;;;;;;5086662;28;19923;-72
2022/10/19 12:27:13;;;;;;;;;;;14.40;99.90;;;;;;5087317;28;19920;-72
2022/10/19 12:29:41;;;;;;;;;;;14.30;99.90;;;;;;5087039;28;19921;-72
2022/10/19 12:32:12;;;;;;;;;;;14.30;99.90;;;;;;5086842;28;19920;-72
2022/10/19 12:34:44;;;;;;;;;;;14.30;99.90;;;;;;5086368;28;19982;-72
2022/10/19 12:37:14;;;;;;;;;;;14.20;99.90;;;;;;5086809;28;19928;-72
2022/10/19 12:39:43;;;;;;;;;;;14.10;99.90;;;;;;5084139;28;19921;-72
2022/10/19 12:42:15;;;;;;;;;;;14.00;99.90;;;;;;5066502;28;19927;-72
2022/10/19 12:45:01;;;;;;;;;;;13.90;99.90;;;;;;5066073;28;20124;-72
2022/10/19 12:47:27;;;;;;;;;;;13.80;99.90;;;;;;5096178;28;20219;-72
2022/10/19 12:49:54;;;;;;;;;;;13.70;99.90;;;;;;5103984;28;19927;-72
2022/10/19 12:52:35;;;;;;;;;;;13.50;99.90;;;;;;5089697;28;19927;-72
2022/10/19 12:55:12;;;;;;;;;;;13.50;99.90;;;;;;5072101;28;19979;-72
2022/10/19 12:57:42;;;;;;;;;;;13.50;99.90;;;;;;5092535;28;19920;-73
2022/10/19 13:00:19;;;;;;;;;;;13.40;99.90;;;;;;5070876;28;20027;-71
2022/10/19 13:02:46;;;;;;;;;;;13.50;99.90;;;;;;5081572;28;20191;-72
2022/10/19 13:05:19;;;;;;;;;;;13.50;99.90;;;;;;5085393;28;20272;-72
2022/10/19 13:07:48;;;;;;;;;;;13.40;99.90;;;;;;5090004;28;19995;-72
2022/10/19 13:10:19;;;;;;;;;;;13.40;99.90;;;;;;5085204;28;19957;-72
2022/10/19 13:12:47;;;;;;;;;;;13.50;99.90;;;;;;5099624;28;19927;-72
2022/10/19 13:15:29;;;;;;;;;;;13.50;99.90;;;;;;5089198;28;19927;-72
2022/10/19 13:17:56;;;;;;;;;;;13.60;99.90;;;;;;5081984;28;20231;-72
2022/10/19 13:20:41;;;;;;;;;;;13.60;99.90;;;;;;5091140;28;19995;-72
2022/10/19 13:23:31;;;;;;;;;;;13.60;99.90;;;;;;5085656;28;19920;-72
2022/10/19 13:26:12;;;;;;;;;;;13.60;99.90;;;;;;5098585;28;19948;-72
2022/10/19 13:28:51;;;;;;;;;;;13.60;99.90;;;;;;5101719;28;20233;-72
2022/10/19 13:31:25;;;;;;;;;;;13.60;99.90;;;;;;5105717;28;19920;-72
2022/10/19 13:33:52;;;;;;;;;;;13.60;99.90;;;;;;5086440;28;19943;-74
2022/10/19 13:36:20;;;;;;;;;;;13.70;99.90;;;;;;5084821;28;19920;-70
2022/10/19 13:38:48;;;;;;;;;;;13.80;99.90;;;;;;5100962;28;20104;-72
2022/10/19 13:41:20;;;;;;;;;;;13.90;99.90;;;;;;5106230;28;20112;-72
2022/10/19 13:43:55;;;;;;;;;;;14.00;99.90;;;;;;5104937;28;19979;-71
2022/10/19 13:46:24;;;;;;;;;;;14.10;99.90;;;;;;5105335;28;19920;-72
2022/10/19 13:49:08;;;;;;;;;;;14.10;99.90;;;;;;5087337;28;19921;-71
2022/10/19 13:51:41;;;;;;;;;;;14.20;99.90;;;;;;5088040;28;19926;-71
2022/10/19 13:54:13;;;;;;;;;;;14.30;99.90;;;;;;5104951;28;19920;-72
2022/10/19 13:56:46;;;;;;;;;;;14.40;99.90;;;;;;5105899;28;19920;-70
2022/10/19 13:59:31;;;;;;;;;;;14.40;99.90;;;;;;5073239;28;19920;-72
2022/10/19 14:02:12;;;;;;;;;;;14.40;99.90;;;;;;5085529;28;19927;-70
2022/10/19 14:04:44;;;;;;;;;;;14.40;99.90;;;;;;5082301;28;19988;-72
2022/10/19 14:07:13;;;;;;;;;;;14.40;99.90;;;;;;5086771;28;20321;-71
2022/10/19 14:09:57;;;;;;;;;;;14.40;99.90;;;;;;5100333;28;19927;-71
2022/10/19 14:12:24;;;;;;;;;;;14.50;99.90;;;;;;5083887;28;19942;-71
2022/10/19 14:14:52;;;;;;;;;;;14.60;99.90;;;;;;5083975;28;20011;-71
2022/10/19 14:17:23;;;;;;;;;;;14.70;99.90;;;;;;5070457;28;19960;-71
2022/10/19 14:19:53;;;;;;;;;;;14.70;99.90;;;;;;5085076;28;19920;-71
2022/10/19 14:22:29;;;;;;;;;;;14.80;99.90;;;;;;5078991;28;19927;-71
2022/10/19 14:25:01;;;;;;;;;;;14.80;99.90;;;;;;5084366;28;20329;-71
2022/10/19 14:27:27;;;;;;;;;;;15.00;99.90;;;;;;5091059;28;19921;-72